sensor_id;sensor_type;location;lat;lon;timestamp;P1;durP1;ratioP1;P2;durP2;ratioP2
17631;SDS011;8934;51.194;17.150;2022-11-14T00:01:35;78.77;;;37.23;;
17631;SDS011;8934;51.194;17.150;2022-11-14T00:04:44;95.90;;;35.70;;
17631;SDS011;8934;51.194;17.150;2022-11-14T00:07:50;60.93;;;31.77;;
17631;SDS011;8934;51.194;17.150;2022-11-14T00:10:58;101.93;;;36.77;;
17631;SDS011;8934;51.194;17.150;2022-11-14T00:14:04;63.20;;;33.90;;
17631;SDS011;8934;51.194;17.150;2022-11-14T00:17:10;92.10;;;32.93;;
17631;SDS011;8934;51.194;17.150;2022-11-14T00:20:17;47.50;;;31.03;;
17631;SDS011;8934;51.194;17.150;2022-11-14T00:23:26;51.03;;;32.27;;
17631;SDS011;8934;51.194;17.150;2022-11-14T00:26:33;78.27;;;32.10;;
17631;SDS011;8934;51.194;17.150;2022-11-14T00:29:39;109.73;;;34.90;;
17631;SDS011;8934;51.194;17.150;2022-11-14T00:32:45;57.53;;;30.53;;
17631;SDS011;8934;51.194;17.150;2022-11-14T00:35:52;55.50;;;28.70;;
17631;SDS011;8934;51.194;17.150;2022-11-14T00:38:58;73.33;;;32.97;;
17631;SDS011;8934;51.194;17.150;2022-11-14T00:42:06;74.50;;;32.00;;
17631;SDS011;8934;51.194;17.150;2022-11-14T00:45:12;47.23;;;29.80;;
17631;SDS011;8934;51.194;17.150;2022-11-14T00:48:18;57.13;;;32.37;;
17631;SDS011;8934;51.194;17.150;2022-11-14T00:51:25;48.97;;;31.37;;
17631;SDS011;8934;51.194;17.150;2022-11-14T00:54:31;60.07;;;33.73;;
17631;SDS011;8934;51.194;17.150;2022-11-14T00:57:39;75.23;;;33.93;;
17631;SDS011;8934;51.194;17.150;2022-11-14T01:00:45;50.47;;;31.57;;
17631;SDS011;8934;51.194;17.150;2022-11-14T01:03:52;68.20;;;34.90;;
17631;SDS011;8934;51.194;17.150;2022-11-14T01:06:58;56.93;;;32.77;;
17631;SDS011;8934;51.194;17.150;2022-11-14T01:10:05;72.77;;;36.07;;
17631;SDS011;8934;51.194;17.150;2022-11-14T01:13:13;64.80;;;34.80;;
17631;SDS011;8934;51.194;17.150;2022-11-14T01:16:20;61.47;;;34.83;;
17631;SDS011;8934;51.194;17.150;2022-11-14T01:19:28;48.00;;;32.47;;
17631;SDS011;8934;51.194;17.150;2022-11-14T01:22:34;71.63;;;37.60;;
17631;SDS011;8934;51.194;17.150;2022-11-14T01:25:41;86.07;;;40.47;;
17631;SDS011;8934;51.194;17.150;2022-11-14T01:28:49;78.23;;;38.87;;
17631;SDS011;8934;51.194;17.150;2022-11-14T01:31:55;60.23;;;37.93;;
17631;SDS011;8934;51.194;17.150;2022-11-14T01:35:02;66.33;;;37.73;;
17631;SDS011;8934;51.194;17.150;2022-11-14T01:38:10;76.83;;;40.67;;
17631;SDS011;8934;51.194;17.150;2022-11-14T01:41:17;79.40;;;42.20;;
17631;SDS011;8934;51.194;17.150;2022-11-14T01:44:42;92.57;;;41.93;;
17631;SDS011;8934;51.194;17.150;2022-11-14T01:47:50;74.33;;;41.23;;
17631;SDS011;8934;51.194;17.150;2022-11-14T01:50:59;75.70;;;43.07;;
17631;SDS011;8934;51.194;17.150;2022-11-14T01:54:10;88.20;;;43.50;;
17631;SDS011;8934;51.194;17.150;2022-11-14T01:57:21;82.20;;;43.07;;
17631;SDS011;8934;51.194;17.150;2022-11-14T02:00:31;129.43;;;48.53;;
17631;SDS011;8934;51.194;17.150;2022-11-14T02:03:38;82.13;;;44.90;;
17631;SDS011;8934;51.194;17.150;2022-11-14T02:06:46;76.97;;;45.07;;
17631;SDS011;8934;51.194;17.150;2022-11-14T02:09:53;75.70;;;43.53;;
17631;SDS011;8934;51.194;17.150;2022-11-14T02:13:00;84.30;;;44.13;;
17631;SDS011;8934;51.194;17.150;2022-11-14T02:16:07;103.37;;;44.27;;
17631;SDS011;8934;51.194;17.150;2022-11-14T02:19:13;83.63;;;44.60;;
17631;SDS011;8934;51.194;17.150;2022-11-14T02:22:21;76.37;;;44.23;;
17631;SDS011;8934;51.194;17.150;2022-11-14T02:25:28;103.80;;;47.90;;
17631;SDS011;8934;51.194;17.150;2022-11-14T02:28:34;82.20;;;45.87;;
17631;SDS011;8934;51.194;17.150;2022-11-14T02:31:40;78.27;;;43.33;;
17631;SDS011;8934;51.194;17.150;2022-11-14T02:34:46;82.17;;;47.30;;
17631;SDS011;8934;51.194;17.150;2022-11-14T02:37:54;98.67;;;46.93;;
17631;SDS011;8934;51.194;17.150;2022-11-14T02:41:00;84.73;;;46.00;;
17631;SDS011;8934;51.194;17.150;2022-11-14T02:44:07;87.97;;;47.40;;
17631;SDS011;8934;51.194;17.150;2022-11-14T02:47:13;75.37;;;43.63;;
17631;SDS011;8934;51.194;17.150;2022-11-14T02:50:19;84.57;;;44.87;;
17631;SDS011;8934;51.194;17.150;2022-11-14T02:53:26;87.10;;;44.27;;
17631;SDS011;8934;51.194;17.150;2022-11-14T02:56:32;89.07;;;46.73;;
17631;SDS011;8934;51.194;17.150;2022-11-14T02:59:38;90.33;;;48.43;;
17631;SDS011;8934;51.194;17.150;2022-11-14T03:02:44;94.33;;;46.13;;
17631;SDS011;8934;51.194;17.150;2022-11-14T03:05:50;84.33;;;44.63;;
17631;SDS011;8934;51.194;17.150;2022-11-14T03:08:58;84.30;;;46.80;;
17631;SDS011;8934;51.194;17.150;2022-11-14T03:12:04;96.37;;;47.77;;
17631;SDS011;8934;51.194;17.150;2022-11-14T03:15:11;85.70;;;46.20;;
17631;SDS011;8934;51.194;17.150;2022-11-14T03:18:18;82.83;;;44.83;;
17631;SDS011;8934;51.194;17.150;2022-11-14T03:21:24;77.10;;;44.40;;
17631;SDS011;8934;51.194;17.150;2022-11-14T03:24:32;88.47;;;43.07;;
17631;SDS011;8934;51.194;17.150;2022-11-14T03:27:39;71.20;;;40.27;;
17631;SDS011;8934;51.194;17.150;2022-11-14T03:30:45;75.87;;;42.27;;
17631;SDS011;8934;51.194;17.150;2022-11-14T03:33:51;94.47;;;43.13;;
17631;SDS011;8934;51.194;17.150;2022-11-14T03:36:57;85.67;;;41.57;;
17631;SDS011;8934;51.194;17.150;2022-11-14T03:40:06;82.27;;;41.43;;
17631;SDS011;8934;51.194;17.150;2022-11-14T03:43:13;91.50;;;42.20;;
17631;SDS011;8934;51.194;17.150;2022-11-14T03:46:19;104.87;;;43.43;;
17631;SDS011;8934;51.194;17.150;2022-11-14T03:49:26;98.17;;;42.53;;
17631;SDS011;8934;51.194;17.150;2022-11-14T03:52:32;89.57;;;45.23;;
17631;SDS011;8934;51.194;17.150;2022-11-14T03:55:39;118.13;;;44.60;;
17631;SDS011;8934;51.194;17.150;2022-11-14T03:58:47;117.80;;;46.97;;
17631;SDS011;8934;51.194;17.150;2022-11-14T04:01:53;113.57;;;46.50;;
17631;SDS011;8934;51.194;17.150;2022-11-14T04:04:59;125.87;;;47.53;;
17631;SDS011;8934;51.194;17.150;2022-11-14T04:08:06;93.50;;;43.03;;
17631;SDS011;8934;51.194;17.150;2022-11-14T04:11:13;98.30;;;43.13;;
17631;SDS011;8934;51.194;17.150;2022-11-14T04:14:19;86.07;;;40.13;;
17631;SDS011;8934;51.194;17.150;2022-11-14T04:17:25;135.63;;;47.27;;
17631;SDS011;8934;51.194;17.150;2022-11-14T04:20:32;92.63;;;43.10;;
17631;SDS011;8934;51.194;17.150;2022-11-14T04:23:38;103.47;;;43.57;;
17631;SDS011;8934;51.194;17.150;2022-11-14T04:26:45;103.37;;;43.43;;
17631;SDS011;8934;51.194;17.150;2022-11-14T04:29:53;110.00;;;45.47;;
17631;SDS011;8934;51.194;17.150;2022-11-14T04:32:59;113.10;;;46.27;;
17631;SDS011;8934;51.194;17.150;2022-11-14T04:36:05;122.93;;;46.93;;
17631;SDS011;8934;51.194;17.150;2022-11-14T04:39:12;108.47;;;43.83;;
17631;SDS011;8934;51.194;17.150;2022-11-14T04:42:19;101.43;;;43.03;;
17631;SDS011;8934;51.194;17.150;2022-11-14T04:45:25;108.07;;;43.63;;
17631;SDS011;8934;51.194;17.150;2022-11-14T04:48:31;120.17;;;45.33;;
17631;SDS011;8934;51.194;17.150;2022-11-14T04:51:38;102.57;;;43.90;;
17631;SDS011;8934;51.194;17.150;2022-11-14T04:54:44;99.33;;;43.13;;
17631;SDS011;8934;51.194;17.150;2022-11-14T04:57:53;101.47;;;40.80;;
17631;SDS011;8934;51.194;17.150;2022-11-14T05:01:05;113.73;;;43.03;;
17631;SDS011;8934;51.194;17.150;2022-11-14T05:04:12;106.77;;;40.73;;
17631;SDS011;8934;51.194;17.150;2022-11-14T05:07:18;106.13;;;42.87;;
17631;SDS011;8934;51.194;17.150;2022-11-14T05:10:25;101.17;;;41.73;;
17631;SDS011;8934;51.194;17.150;2022-11-14T05:13:32;106.73;;;43.40;;
17631;SDS011;8934;51.194;17.150;2022-11-14T05:16:38;104.43;;;42.03;;
17631;SDS011;8934;51.194;17.150;2022-11-14T05:19:44;107.23;;;43.17;;
17631;SDS011;8934;51.194;17.150;2022-11-14T05:22:51;112.33;;;43.43;;
17631;SDS011;8934;51.194;17.150;2022-11-14T05:26:00;105.70;;;42.30;;
17631;SDS011;8934;51.194;17.150;2022-11-14T05:29:07;115.63;;;43.63;;
17631;SDS011;8934;51.194;17.150;2022-11-14T05:32:14;112.90;;;42.97;;
17631;SDS011;8934;51.194;17.150;2022-11-14T05:35:21;103.80;;;39.87;;
17631;SDS011;8934;51.194;17.150;2022-11-14T05:38:27;102.80;;;42.53;;
17631;SDS011;8934;51.194;17.150;2022-11-14T05:41:34;110.27;;;43.13;;
17631;SDS011;8934;51.194;17.150;2022-11-14T05:44:42;111.93;;;42.87;;
17631;SDS011;8934;51.194;17.150;2022-11-14T05:47:48;107.40;;;43.90;;
17631;SDS011;8934;51.194;17.150;2022-11-14T05:50:57;109.00;;;42.97;;
17631;SDS011;8934;51.194;17.150;2022-11-14T05:54:04;103.37;;;42.23;;
17631;SDS011;8934;51.194;17.150;2022-11-14T05:57:10;100.40;;;43.33;;
17631;SDS011;8934;51.194;17.150;2022-11-14T06:00:18;99.10;;;42.50;;
17631;SDS011;8934;51.194;17.150;2022-11-14T06:03:24;93.33;;;41.93;;
17631;SDS011;8934;51.194;17.150;2022-11-14T06:06:30;96.10;;;40.33;;
17631;SDS011;8934;51.194;17.150;2022-11-14T06:09:36;101.80;;;40.37;;
17631;SDS011;8934;51.194;17.150;2022-11-14T06:12:43;88.60;;;39.13;;
17631;SDS011;8934;51.194;17.150;2022-11-14T06:15:50;101.37;;;40.00;;
17631;SDS011;8934;51.194;17.150;2022-11-14T06:18:57;80.53;;;36.97;;
17631;SDS011;8934;51.194;17.150;2022-11-14T06:22:03;93.13;;;42.83;;
17631;SDS011;8934;51.194;17.150;2022-11-14T06:25:09;97.87;;;42.30;;
17631;SDS011;8934;51.194;17.150;2022-11-14T06:28:15;110.07;;;43.17;;
17631;SDS011;8934;51.194;17.150;2022-11-14T06:31:22;101.00;;;41.50;;
17631;SDS011;8934;51.194;17.150;2022-11-14T06:34:29;97.23;;;40.53;;
17631;SDS011;8934;51.194;17.150;2022-11-14T06:37:36;100.40;;;42.57;;
17631;SDS011;8934;51.194;17.150;2022-11-14T06:40:42;83.87;;;38.07;;
17631;SDS011;8934;51.194;17.150;2022-11-14T06:43:48;90.90;;;38.93;;
17631;SDS011;8934;51.194;17.150;2022-11-14T06:46:57;91.47;;;38.50;;
17631;SDS011;8934;51.194;17.150;2022-11-14T06:50:03;96.43;;;39.40;;
17631;SDS011;8934;51.194;17.150;2022-11-14T06:53:10;93.20;;;39.83;;
17631;SDS011;8934;51.194;17.150;2022-11-14T06:56:16;87.97;;;38.87;;
17631;SDS011;8934;51.194;17.150;2022-11-14T06:59:23;87.47;;;38.23;;
17631;SDS011;8934;51.194;17.150;2022-11-14T07:02:30;82.23;;;37.80;;
17631;SDS011;8934;51.194;17.150;2022-11-14T07:05:37;81.47;;;36.67;;
17631;SDS011;8934;51.194;17.150;2022-11-14T07:08:43;88.37;;;38.30;;
17631;SDS011;8934;51.194;17.150;2022-11-14T07:11:50;86.20;;;37.90;;
17631;SDS011;8934;51.194;17.150;2022-11-14T07:14:56;80.37;;;37.60;;
17631;SDS011;8934;51.194;17.150;2022-11-14T07:18:04;91.87;;;37.93;;
17631;SDS011;8934;51.194;17.150;2022-11-14T07:21:10;83.10;;;38.47;;
17631;SDS011;8934;51.194;17.150;2022-11-14T07:24:17;81.70;;;36.83;;
17631;SDS011;8934;51.194;17.150;2022-11-14T07:27:23;91.60;;;38.37;;
17631;SDS011;8934;51.194;17.150;2022-11-14T07:30:29;89.20;;;41.13;;
17631;SDS011;8934;51.194;17.150;2022-11-14T07:33:37;84.57;;;38.83;;
17631;SDS011;8934;51.194;17.150;2022-11-14T07:36:44;83.73;;;37.90;;
17631;SDS011;8934;51.194;17.150;2022-11-14T07:39:50;78.63;;;37.63;;
17631;SDS011;8934;51.194;17.150;2022-11-14T07:42:57;74.83;;;35.90;;
17631;SDS011;8934;51.194;17.150;2022-11-14T07:46:05;80.13;;;36.50;;
17631;SDS011;8934;51.194;17.150;2022-11-14T07:49:14;77.70;;;38.23;;
17631;SDS011;8934;51.194;17.150;2022-11-14T07:52:20;71.70;;;35.73;;
17631;SDS011;8934;51.194;17.150;2022-11-14T07:55:26;77.03;;;37.10;;
17631;SDS011;8934;51.194;17.150;2022-11-14T07:58:33;75.27;;;35.20;;
17631;SDS011;8934;51.194;17.150;2022-11-14T08:01:40;68.07;;;35.87;;
17631;SDS011;8934;51.194;17.150;2022-11-14T08:04:47;69.77;;;35.90;;
17631;SDS011;8934;51.194;17.150;2022-11-14T08:07:53;72.20;;;36.50;;
17631;SDS011;8934;51.194;17.150;2022-11-14T08:11:00;73.00;;;36.97;;
17631;SDS011;8934;51.194;17.150;2022-11-14T08:14:06;74.90;;;38.23;;
17631;SDS011;8934;51.194;17.150;2022-11-14T08:17:13;73.30;;;36.63;;
17631;SDS011;8934;51.194;17.150;2022-11-14T08:20:20;78.40;;;35.80;;
17631;SDS011;8934;51.194;17.150;2022-11-14T08:23:26;66.40;;;35.97;;
17631;SDS011;8934;51.194;17.150;2022-11-14T08:26:33;68.87;;;36.73;;
17631;SDS011;8934;51.194;17.150;2022-11-14T08:29:39;65.43;;;32.50;;
17631;SDS011;8934;51.194;17.150;2022-11-14T08:32:45;63.57;;;35.23;;
17631;SDS011;8934;51.194;17.150;2022-11-14T08:35:53;60.33;;;34.10;;
17631;SDS011;8934;51.194;17.150;2022-11-14T08:38:59;62.63;;;35.00;;
17631;SDS011;8934;51.194;17.150;2022-11-14T08:42:05;67.47;;;36.13;;
17631;SDS011;8934;51.194;17.150;2022-11-14T08:45:11;58.53;;;33.90;;
17631;SDS011;8934;51.194;17.150;2022-11-14T08:48:17;54.87;;;32.47;;
17631;SDS011;8934;51.194;17.150;2022-11-14T08:51:25;54.50;;;31.47;;
17631;SDS011;8934;51.194;17.150;2022-11-14T08:54:31;57.17;;;31.90;;
17631;SDS011;8934;51.194;17.150;2022-11-14T08:57:38;65.57;;;33.53;;
17631;SDS011;8934;51.194;17.150;2022-11-14T09:00:51;56.30;;;32.37;;
17631;SDS011;8934;51.194;17.150;2022-11-14T09:03:58;51.33;;;31.07;;
17631;SDS011;8934;51.194;17.150;2022-11-14T09:07:06;61.93;;;34.17;;
17631;SDS011;8934;51.194;17.150;2022-11-14T09:10:13;58.27;;;33.00;;
17631;SDS011;8934;51.194;17.150;2022-11-14T09:13:19;61.57;;;33.53;;
17631;SDS011;8934;51.194;17.150;2022-11-14T09:16:25;55.77;;;33.53;;
17631;SDS011;8934;51.194;17.150;2022-11-14T09:19:31;59.23;;;33.20;;
17631;SDS011;8934;51.194;17.150;2022-11-14T09:22:39;53.57;;;33.93;;
17631;SDS011;8934;51.194;17.150;2022-11-14T09:25:45;57.57;;;34.07;;
17631;SDS011;8934;51.194;17.150;2022-11-14T09:28:51;50.00;;;33.13;;
17631;SDS011;8934;51.194;17.150;2022-11-14T09:31:57;63.63;;;35.17;;
17631;SDS011;8934;51.194;17.150;2022-11-14T09:35:04;60.03;;;34.80;;
17631;SDS011;8934;51.194;17.150;2022-11-14T09:38:12;58.70;;;34.53;;
17631;SDS011;8934;51.194;17.150;2022-11-14T09:41:21;60.43;;;34.30;;
17631;SDS011;8934;51.194;17.150;2022-11-14T09:48:11;57.50;;;33.60;;
17631;SDS011;8934;51.194;17.150;2022-11-14T09:51:20;56.63;;;34.27;;
17631;SDS011;8934;51.194;17.150;2022-11-14T09:54:31;56.27;;;33.97;;
17631;SDS011;8934;51.194;17.150;2022-11-14T09:57:45;62.30;;;35.30;;
17631;SDS011;8934;51.194;17.150;2022-11-14T10:00:53;54.10;;;33.43;;
17631;SDS011;8934;51.194;17.150;2022-11-14T10:04:08;53.23;;;33.40;;
17631;SDS011;8934;51.194;17.150;2022-11-14T10:07:25;52.50;;;31.37;;
17631;SDS011;8934;51.194;17.150;2022-11-14T10:10:49;52.37;;;32.73;;
17631;SDS011;8934;51.194;17.150;2022-11-14T10:14:14;57.27;;;35.67;;
17631;SDS011;8934;51.194;17.150;2022-11-14T10:17:50;54.37;;;35.10;;
17631;SDS011;8934;51.194;17.150;2022-11-14T10:21:05;53.08;;;32.70;;
17631;SDS011;8934;51.194;17.150;2022-11-14T10:24:26;53.42;;;33.25;;
17631;SDS011;8934;51.194;17.150;2022-11-14T10:27:52;52.00;;;31.85;;
17631;SDS011;8934;51.194;17.150;2022-11-14T10:31:15;52.23;;;31.47;;
17631;SDS011;8934;51.194;17.150;2022-11-14T10:34:29;50.25;;;30.20;;
17631;SDS011;8934;51.194;17.150;2022-11-14T10:37:40;51.75;;;31.80;;
17631;SDS011;8934;51.194;17.150;2022-11-14T10:40:58;54.38;;;32.10;;
17631;SDS011;8934;51.194;17.150;2022-11-14T10:44:09;52.40;;;32.85;;
17631;SDS011;8934;51.194;17.150;2022-11-14T10:47:20;50.83;;;32.40;;
17631;SDS011;8934;51.194;17.150;2022-11-14T10:50:31;47.88;;;31.52;;
17631;SDS011;8934;51.194;17.150;2022-11-14T10:53:47;50.47;;;32.42;;
17631;SDS011;8934;51.194;17.150;2022-11-14T10:56:57;49.60;;;34.15;;
17631;SDS011;8934;51.194;17.150;2022-11-14T11:00:09;49.20;;;32.00;;
17631;SDS011;8934;51.194;17.150;2022-11-14T11:03:16;50.65;;;34.40;;
17631;SDS011;8934;51.194;17.150;2022-11-14T11:06:23;48.97;;;32.55;;
17631;SDS011;8934;51.194;17.150;2022-11-14T11:09:30;47.13;;;33.30;;
17631;SDS011;8934;51.194;17.150;2022-11-14T11:12:54;47.75;;;32.90;;
17631;SDS011;8934;51.194;17.150;2022-11-14T11:16:02;48.67;;;32.75;;
17631;SDS011;8934;51.194;17.150;2022-11-14T11:19:12;46.72;;;32.17;;
17631;SDS011;8934;51.194;17.150;2022-11-14T11:22:24;48.35;;;32.38;;
17631;SDS011;8934;51.194;17.150;2022-11-14T11:25:32;47.95;;;31.85;;
17631;SDS011;8934;51.194;17.150;2022-11-14T11:28:39;43.55;;;31.75;;
17631;SDS011;8934;51.194;17.150;2022-11-14T11:31:51;48.88;;;31.88;;
17631;SDS011;8934;51.194;17.150;2022-11-14T11:34:59;44.03;;;32.47;;
17631;SDS011;8934;51.194;17.150;2022-11-14T11:38:07;44.95;;;31.75;;
17631;SDS011;8934;51.194;17.150;2022-11-14T11:41:20;44.05;;;30.33;;
17631;SDS011;8934;51.194;17.150;2022-11-14T11:44:52;42.20;;;29.33;;
17631;SDS011;8934;51.194;17.150;2022-11-14T11:48:07;44.10;;;30.13;;
17631;SDS011;8934;51.194;17.150;2022-11-14T11:51:19;45.42;;;30.02;;
17631;SDS011;8934;51.194;17.150;2022-11-14T11:54:32;44.42;;;30.55;;
17631;SDS011;8934;51.194;17.150;2022-11-14T11:57:52;43.15;;;30.63;;
17631;SDS011;8934;51.194;17.150;2022-11-14T12:01:08;41.10;;;29.83;;
17631;SDS011;8934;51.194;17.150;2022-11-14T12:04:16;41.33;;;29.25;;
17631;SDS011;8934;51.194;17.150;2022-11-14T12:07:30;46.33;;;29.98;;
17631;SDS011;8934;51.194;17.150;2022-11-14T12:10:43;43.30;;;29.02;;
17631;SDS011;8934;51.194;17.150;2022-11-14T12:13:53;42.92;;;30.08;;
17631;SDS011;8934;51.194;17.150;2022-11-14T12:24:46;40.13;;;29.73;;
17631;SDS011;8934;51.194;17.150;2022-11-14T12:31:44;43.15;;;29.23;;
17631;SDS011;8934;51.194;17.150;2022-11-14T12:34:51;40.15;;;28.50;;
17631;SDS011;8934;51.194;17.150;2022-11-14T12:37:59;38.70;;;28.17;;
17631;SDS011;8934;51.194;17.150;2022-11-14T12:41:08;36.00;;;27.00;;
17631;SDS011;8934;51.194;17.150;2022-11-14T12:44:15;34.20;;;26.88;;
17631;SDS011;8934;51.194;17.150;2022-11-14T12:47:23;32.88;;;26.33;;
17631;SDS011;8934;51.194;17.150;2022-11-14T12:50:31;36.97;;;27.75;;
17631;SDS011;8934;51.194;17.150;2022-11-14T12:53:47;37.17;;;27.35;;
17631;SDS011;8934;51.194;17.150;2022-11-14T12:57:00;36.38;;;27.38;;
17631;SDS011;8934;51.194;17.150;2022-11-14T13:00:13;37.45;;;27.45;;
17631;SDS011;8934;51.194;17.150;2022-11-14T13:03:25;34.83;;;25.98;;
17631;SDS011;8934;51.194;17.150;2022-11-14T13:06:56;34.15;;;26.00;;
17631;SDS011;8934;51.194;17.150;2022-11-14T13:10:23;36.00;;;27.20;;
17631;SDS011;8934;51.194;17.150;2022-11-14T13:13:32;32.60;;;25.23;;
17631;SDS011;8934;51.194;17.150;2022-11-14T13:17:24;36.67;;;26.63;;
17631;SDS011;8934;51.194;17.150;2022-11-14T13:20:59;34.03;;;26.20;;
17631;SDS011;8934;51.194;17.150;2022-11-14T13:24:24;34.17;;;25.83;;
17631;SDS011;8934;51.194;17.150;2022-11-14T13:27:32;33.83;;;25.30;;
17631;SDS011;8934;51.194;17.150;2022-11-14T13:31:15;34.08;;;25.92;;
17631;SDS011;8934;51.194;17.150;2022-11-14T13:34:28;33.28;;;26.02;;
17631;SDS011;8934;51.194;17.150;2022-11-14T13:37:57;30.80;;;24.38;;
17631;SDS011;8934;51.194;17.150;2022-11-14T13:41:50;33.88;;;25.33;;
17631;SDS011;8934;51.194;17.150;2022-11-14T13:49:08;33.78;;;24.63;;
17631;SDS011;8934;51.194;17.150;2022-11-14T13:52:33;31.45;;;25.00;;
17631;SDS011;8934;51.194;17.150;2022-11-14T13:55:48;32.30;;;25.30;;
17631;SDS011;8934;51.194;17.150;2022-11-14T14:02:54;37.60;;;25.55;;
17631;SDS011;8934;51.194;17.150;2022-11-14T14:06:18;32.97;;;25.10;;
17631;SDS011;8934;51.194;17.150;2022-11-14T14:09:36;30.85;;;23.75;;
17631;SDS011;8934;51.194;17.150;2022-11-14T14:12:52;32.90;;;25.20;;
17631;SDS011;8934;51.194;17.150;2022-11-14T14:16:08;30.50;;;25.98;;
17631;SDS011;8934;51.194;17.150;2022-11-14T14:19:23;28.98;;;23.15;;
17631;SDS011;8934;51.194;17.150;2022-11-14T14:22:44;35.00;;;26.10;;
17631;SDS011;8934;51.194;17.150;2022-11-14T14:25:59;31.50;;;23.90;;
17631;SDS011;8934;51.194;17.150;2022-11-14T14:29:14;31.38;;;24.55;;
17631;SDS011;8934;51.194;17.150;2022-11-14T14:32:27;31.23;;;23.88;;
17631;SDS011;8934;51.194;17.150;2022-11-14T14:35:35;33.85;;;23.58;;
17631;SDS011;8934;51.194;17.150;2022-11-14T14:38:44;30.45;;;23.73;;
17631;SDS011;8934;51.194;17.150;2022-11-14T14:41:53;32.63;;;24.95;;
17631;SDS011;8934;51.194;17.150;2022-11-14T14:45:01;30.83;;;23.35;;
17631;SDS011;8934;51.194;17.150;2022-11-14T14:48:11;32.42;;;24.70;;
17631;SDS011;8934;51.194;17.150;2022-11-14T14:51:28;31.25;;;24.02;;
17631;SDS011;8934;51.194;17.150;2022-11-14T14:54:35;32.22;;;25.23;;
17631;SDS011;8934;51.194;17.150;2022-11-14T14:57:43;37.80;;;28.50;;
17631;SDS011;8934;51.194;17.150;2022-11-14T15:00:50;48.17;;;34.50;;
17631;SDS011;8934;51.194;17.150;2022-11-14T15:04:00;52.85;;;37.08;;
17631;SDS011;8934;51.194;17.150;2022-11-14T15:07:17;48.60;;;35.10;;
17631;SDS011;8934;51.194;17.150;2022-11-14T15:10:26;47.10;;;34.75;;
17631;SDS011;8934;51.194;17.150;2022-11-14T15:13:34;51.17;;;34.38;;
17631;SDS011;8934;51.194;17.150;2022-11-14T15:16:42;48.35;;;34.30;;
17631;SDS011;8934;51.194;17.150;2022-11-14T15:19:51;45.70;;;32.47;;
17631;SDS011;8934;51.194;17.150;2022-11-14T15:23:03;48.80;;;36.42;;
17631;SDS011;8934;51.194;17.150;2022-11-14T15:26:14;59.17;;;42.38;;
17631;SDS011;8934;51.194;17.150;2022-11-14T15:29:22;62.70;;;42.72;;
17631;SDS011;8934;51.194;17.150;2022-11-14T15:32:29;59.65;;;40.15;;
17631;SDS011;8934;51.194;17.150;2022-11-14T15:35:37;48.05;;;35.55;;
17631;SDS011;8934;51.194;17.150;2022-11-14T15:38:58;49.80;;;35.75;;
17631;SDS011;8934;51.194;17.150;2022-11-14T15:42:12;46.42;;;34.10;;
17631;SDS011;8934;51.194;17.150;2022-11-14T15:45:19;49.95;;;35.03;;
17631;SDS011;8934;51.194;17.150;2022-11-14T15:48:26;47.20;;;32.87;;
17631;SDS011;8934;51.194;17.150;2022-11-14T15:51:36;39.40;;;29.57;;
17631;SDS011;8934;51.194;17.150;2022-11-14T15:54:48;42.90;;;29.17;;
17631;SDS011;8934;51.194;17.150;2022-11-14T15:57:54;45.20;;;31.17;;
17631;SDS011;8934;51.194;17.150;2022-11-14T16:01:21;53.03;;;35.03;;
17631;SDS011;8934;51.194;17.150;2022-11-14T16:04:31;61.45;;;39.05;;
17631;SDS011;8934;51.194;17.150;2022-11-14T16:07:40;58.27;;;37.87;;
17631;SDS011;8934;51.194;17.150;2022-11-14T16:10:48;54.20;;;35.37;;
17631;SDS011;8934;51.194;17.150;2022-11-14T16:13:53;51.30;;;33.70;;
17631;SDS011;8934;51.194;17.150;2022-11-14T16:16:59;51.10;;;34.20;;
17631;SDS011;8934;51.194;17.150;2022-11-14T16:20:07;52.57;;;34.27;;
17631;SDS011;8934;51.194;17.150;2022-11-14T16:23:19;56.00;;;36.10;;
17631;SDS011;8934;51.194;17.150;2022-11-14T16:26:27;58.90;;;36.57;;
17631;SDS011;8934;51.194;17.150;2022-11-14T16:29:36;55.90;;;37.37;;
17631;SDS011;8934;51.194;17.150;2022-11-14T16:32:43;60.03;;;38.10;;
17631;SDS011;8934;51.194;17.150;2022-11-14T16:35:50;62.57;;;38.23;;
17631;SDS011;8934;51.194;17.150;2022-11-14T16:38:57;59.57;;;38.67;;
17631;SDS011;8934;51.194;17.150;2022-11-14T16:42:08;55.23;;;35.93;;
17631;SDS011;8934;51.194;17.150;2022-11-14T16:45:16;59.40;;;39.27;;
17631;SDS011;8934;51.194;17.150;2022-11-14T16:48:23;55.67;;;36.60;;
17631;SDS011;8934;51.194;17.150;2022-11-14T16:51:30;52.33;;;36.83;;
17631;SDS011;8934;51.194;17.150;2022-11-14T16:54:54;48.87;;;33.07;;
17631;SDS011;8934;51.194;17.150;2022-11-14T16:58:01;48.87;;;31.37;;
17631;SDS011;8934;51.194;17.150;2022-11-14T17:01:09;48.77;;;31.53;;
17631;SDS011;8934;51.194;17.150;2022-11-14T17:04:24;49.53;;;32.27;;
17631;SDS011;8934;51.194;17.150;2022-11-14T17:07:30;50.63;;;32.73;;
17631;SDS011;8934;51.194;17.150;2022-11-14T17:10:40;54.67;;;32.70;;
17631;SDS011;8934;51.194;17.150;2022-11-14T17:13:47;48.10;;;32.50;;
17631;SDS011;8934;51.194;17.150;2022-11-14T17:16:54;45.70;;;31.00;;
17631;SDS011;8934;51.194;17.150;2022-11-14T17:20:08;46.67;;;28.93;;
17631;SDS011;8934;51.194;17.150;2022-11-14T17:23:15;50.53;;;32.00;;
17631;SDS011;8934;51.194;17.150;2022-11-14T17:26:21;53.43;;;34.03;;
17631;SDS011;8934;51.194;17.150;2022-11-14T17:29:29;51.10;;;34.00;;
17631;SDS011;8934;51.194;17.150;2022-11-14T17:32:36;60.47;;;37.40;;
17631;SDS011;8934;51.194;17.150;2022-11-14T17:35:42;55.70;;;38.17;;
17631;SDS011;8934;51.194;17.150;2022-11-14T17:38:48;69.57;;;42.87;;
17631;SDS011;8934;51.194;17.150;2022-11-14T17:41:55;78.60;;;49.17;;
17631;SDS011;8934;51.194;17.150;2022-11-14T17:45:02;77.43;;;47.70;;
17631;SDS011;8934;51.194;17.150;2022-11-14T17:48:09;74.23;;;45.90;;
17631;SDS011;8934;51.194;17.150;2022-11-14T17:51:17;75.47;;;46.17;;
17631;SDS011;8934;51.194;17.150;2022-11-14T17:54:22;80.57;;;48.27;;
17631;SDS011;8934;51.194;17.150;2022-11-14T17:57:29;75.67;;;46.43;;
17631;SDS011;8934;51.194;17.150;2022-11-14T18:00:37;75.87;;;45.03;;
17631;SDS011;8934;51.194;17.150;2022-11-14T18:03:43;68.90;;;44.80;;
17631;SDS011;8934;51.194;17.150;2022-11-14T18:06:50;60.00;;;40.80;;
17631;SDS011;8934;51.194;17.150;2022-11-14T18:09:56;66.30;;;41.87;;
17631;SDS011;8934;51.194;17.150;2022-11-14T18:13:02;68.60;;;42.03;;
17631;SDS011;8934;51.194;17.150;2022-11-14T18:16:11;67.23;;;42.07;;
17631;SDS011;8934;51.194;17.150;2022-11-14T18:19:18;68.07;;;42.83;;
17631;SDS011;8934;51.194;17.150;2022-11-14T18:22:25;73.17;;;45.47;;
17631;SDS011;8934;51.194;17.150;2022-11-14T18:25:32;67.17;;;40.83;;
17631;SDS011;8934;51.194;17.150;2022-11-14T18:28:38;68.87;;;42.37;;
17631;SDS011;8934;51.194;17.150;2022-11-14T18:31:46;67.13;;;42.00;;
17631;SDS011;8934;51.194;17.150;2022-11-14T18:34:53;70.17;;;43.17;;
17631;SDS011;8934;51.194;17.150;2022-11-14T18:37:59;73.97;;;44.57;;
17631;SDS011;8934;51.194;17.150;2022-11-14T18:41:06;68.87;;;44.30;;
17631;SDS011;8934;51.194;17.150;2022-11-14T18:44:13;65.70;;;40.07;;
17631;SDS011;8934;51.194;17.150;2022-11-14T18:47:21;62.27;;;41.40;;
17631;SDS011;8934;51.194;17.150;2022-11-14T18:50:29;64.40;;;41.17;;